Time;durP1;ratioP1;P1;durP2;ratioP2;P2;SDS_P1;SDS_P2;PMS_P1;PMS_P2;Temp;Humidity;BMP_temperature;BMP_pressure;BME280_temperature;BME280_humidity;BME280_pressure;Samples;Min_cycle;Max_cycle;Signal;HPM_P1;HPM_P2
2022/08/17 00:02:55;;;;;;;46.03;35.20;;;19.20;99.90;;;;;;5132912;27;20115;-82
2022/08/17 00:05:42;;;;;;;46.33;35.67;;;19.20;99.90;;;;;;5108367;28;20062;-82
2022/08/17 00:08:34;;;;;;;48.55;36.92;;;19.50;99.90;;;;;;5132795;27;20493;-82
2022/08/17 00:11:28;;;;;;;47.08;35.33;;;19.10;99.90;;;;;;5132351;27;20504;-82
2022/08/17 00:14:16;;;;;;;56.80;37.75;;;18.70;99.90;;;;;;5120208;27;20083;-82
2022/08/17 00:17:02;;;;;;;53.58;35.50;;;19.00;99.90;;;;;;5131508;27;20470;-83
2022/08/17 00:19:46;;;;;;;56.92;37.95;;;19.00;99.90;;;;;;5127772;27;20070;-82
2022/08/17 00:22:30;;;;;;;56.72;36.75;;;18.90;99.90;;;;;;5106277;27;20100;-83
2022/08/17 00:25:18;;;;;;;60.95;41.30;;;19.70;99.90;;;;;;5130660;27;20644;-82
2022/08/17 00:28:03;;;;;;;47.67;35.60;;;18.80;99.90;;;;;;5117112;27;20540;-82
2022/08/17 00:30:50;;;;;;;40.53;32.92;;;18.70;99.90;;;;;;5119154;27;20042;-83
2022/08/17 00:33:36;;;;;;;42.10;33.10;;;18.60;99.90;;;;;;5136645;27;20134;-83
2022/08/17 00:36:22;;;;;;;56.80;37.22;;;18.70;99.90;;;;;;5121849;27;20386;-83
2022/08/17 00:39:07;;;;;;;48.47;36.83;;;18.70;99.90;;;;;;5127116;27;20444;-83
2022/08/17 00:42:42;;;;;;;60.70;38.92;;;18.60;99.90;;;;;;5089739;28;20398;-82
2022/08/17 00:45:27;;;;;;;62.40;41.30;;;18.70;99.90;;;;;;5089305;28;20035;-81
2022/08/17 00:48:12;;;;;;;61.60;39.97;;;18.60;99.90;;;;;;5075442;28;20032;-81
2022/08/17 00:51:21;;;;;;;61.22;41.25;;;18.70;99.90;;;;;;5085897;28;20447;-82
2022/08/17 00:54:22;;;;;;;62.60;41.97;;;18.70;99.90;;;;;;5075158;28;20087;-82
2022/08/17 00:57:22;;;;;;;51.15;36.55;;;18.20;99.90;;;;;;5070889;28;20035;-83
2022/08/17 01:00:20;;;;;;;67.68;43.70;;;18.80;99.90;;;;;;5088817;28;20039;-81
2022/08/17 01:03:11;;;;;;;51.42;36.63;;;18.50;99.90;;;;;;5088044;28;20069;-82
2022/08/17 01:05:58;;;;;;;54.60;39.70;;;18.30;99.90;;;;;;5088852;28;20035;-81
2022/08/17 01:08:43;;;;;;;51.20;38.75;;;18.70;99.90;;;;;;5074279;28;20095;-82
2022/08/17 01:11:29;;;;;;;64.60;43.35;;;18.50;99.90;;;;;;5069418;28;20106;-84
2022/08/17 01:14:13;;;;;;;62.17;43.25;;;18.50;99.90;;;;;;5088200;28;20039;-83
2022/08/17 01:16:59;;;;;;;74.47;47.22;;;18.80;99.90;;;;;;5088992;28;20120;-84
2022/08/17 01:19:44;;;;;;;62.08;43.17;;;18.50;99.90;;;;;;5073963;28;20071;-84
2022/08/17 01:22:28;;;;;;;77.03;45.60;;;18.60;99.90;;;;;;5088524;28;20044;-84
2022/08/17 01:25:13;;;;;;;74.40;47.28;;;18.50;99.90;;;;;;5084257;28;20093;-84
2022/08/17 01:27:57;;;;;;;57.78;41.90;;;18.30;99.90;;;;;;5077971;28;20116;-84
2022/08/17 01:30:41;;;;;;;65.25;41.10;;;18.10;99.90;;;;;;5087976;28;20040;-85
2022/08/17 01:33:27;;;;;;;68.03;44.55;;;;;;;;;;5076119;28;20043;-84
2022/08/17 01:36:11;;;;;;;65.13;44.03;;;18.30;99.90;;;;;;5075451;28;20034;-84
2022/08/17 01:38:55;;;;;;;95.38;51.80;;;18.70;99.90;;;;;;5088522;28;20043;-84
2022/08/17 01:41:40;;;;;;;106.80;51.53;;;18.30;99.90;;;;;;5074393;28;20120;-83
2022/08/17 01:44:26;;;;;;;64.78;43.78;;;18.70;99.90;;;;;;5087268;28;20124;-84
2022/08/17 01:47:11;;;;;;;69.60;45.75;;;18.50;99.90;;;;;;5073918;28;20036;-81
2022/08/17 01:49:55;;;;;;;83.32;48.35;;;18.50;99.90;;;;;;5078343;28;20044;-81
2022/08/17 01:52:39;;;;;;;64.72;42.70;;;18.30;99.90;;;;;;5065432;28;20098;-82
2022/08/17 01:55:30;;;;;;;113.07;53.05;;;18.60;99.90;;;;;;5061950;28;20450;-81
2022/08/17 01:58:15;;;;;;;163.90;58.95;;;;;;;;;;5062493;28;20163;-81
2022/08/17 02:00:59;;;;;;;70.57;44.75;;;18.70;99.90;;;;;;5069055;28;20044;-81
2022/08/17 02:03:45;;;;;;;88.40;47.00;;;18.50;99.90;;;;;;5070575;28;20153;-82
2022/08/17 02:06:32;;;;;;;57.75;38.30;;;18.40;99.90;;;;;;5060350;28;20063;-82
2022/08/17 02:09:16;;;;;;;106.78;47.15;;;18.60;99.90;;;;;;5069734;28;20039;-82
2022/08/17 02:12:02;;;;;;;78.35;43.13;;;18.60;99.90;;;;;;5065311;28;20044;-82
2022/08/17 02:14:46;;;;;;;88.75;41.63;;;18.70;99.90;;;;;;5063812;28;20115;-82
2022/08/17 02:17:31;;;;;;;130.73;43.20;;;18.50;99.90;;;;;;5074369;28;20078;-82
2022/08/17 02:20:15;;;;;;;79.78;39.42;;;18.70;99.90;;;;;;5073923;28;20090;-82
2022/08/17 02:23:01;;;;;;;75.35;40.25;;;18.60;99.90;;;;;;5055644;28;20044;-82
2022/08/17 02:25:49;;;;;;;52.33;37.20;;;19.00;99.90;;;;;;5068449;28;20055;-82
2022/08/17 02:28:33;;;;;;;68.38;42.03;;;18.70;99.90;;;;;;5073966;28;20094;-81
2022/08/17 02:31:18;;;;;;;57.13;38.67;;;;;;;;;;5063902;28;20541;-81
2022/08/17 02:34:03;;;;;;;61.45;40.65;;;;;;;;;;5073784;28;20040;-82
2022/08/17 02:36:47;;;;;;;46.13;34.60;;;18.40;99.90;;;;;;5063908;28;20400;-82
2022/08/17 02:39:31;;;;;;;46.10;35.50;;;18.60;99.90;;;;;;5073640;28;20079;-81
2022/08/17 02:42:15;;;;;;;57.97;40.05;;;18.30;99.90;;;;;;5061706;28;20092;-83
2022/08/17 02:45:01;;;;;;;44.28;34.33;;;18.30;99.90;;;;;;5073538;28;20071;-82
2022/08/17 02:47:46;;;;;;;48.70;37.95;;;18.20;99.90;;;;;;5073836;28;20043;-83
2022/08/17 02:50:30;;;;;;;45.85;35.78;;;18.50;99.90;;;;;;5072576;28;20067;-82
2022/08/17 02:53:15;;;;;;;40.90;34.17;;;;;;;;;;5072661;28;20039;-87
2022/08/17 02:56:00;;;;;;;53.72;38.15;;;18.30;99.90;;;;;;5072284;28;20048;-82
2022/08/17 02:58:45;;;;;;;52.80;38.40;;;18.00;99.90;;;;;;5060240;28;20047;-83
2022/08/17 03:01:29;;;;;;;65.55;42.17;;;18.40;99.90;;;;;;5059364;28;20124;-82
2022/08/17 03:04:13;;;;;;;50.13;37.72;;;18.00;99.90;;;;;;5071784;28;20039;-82
2022/08/17 03:06:57;;;;;;;50.80;37.40;;;18.40;99.90;;;;;;5057567;28;20031;-81
2022/08/17 03:09:42;;;;;;;44.33;35.72;;;18.20;99.90;;;;;;5073221;28;20043;-81
2022/08/17 03:12:31;;;;;;;52.92;39.47;;;18.00;99.90;;;;;;5066324;28;20048;-82
2022/08/17 03:15:25;;;;;;;70.55;43.38;;;18.80;99.90;;;;;;5065233;28;20392;-82
2022/08/17 03:18:15;;;;;;;44.65;35.90;;;18.00;99.90;;;;;;5073575;28;20032;-81
2022/08/17 03:21:02;;;;;;;61.67;41.00;;;18.10;99.90;;;;;;5072234;28;20040;-81
2022/08/17 03:23:47;;;;;;;68.47;43.58;;;18.10;99.90;;;;;;5073369;28;20475;-81
2022/08/17 03:26:31;;;;;;;44.13;35.38;;;17.90;99.90;;;;;;5072683;28;20554;-81
2022/08/17 03:29:17;;;;;;;61.30;40.97;;;18.10;99.90;;;;;;5057489;28;20059;-81
2022/08/17 03:32:11;;;;;;;66.70;44.20;;;18.10;99.90;;;;;;5057085;28;20491;-81
2022/08/17 03:34:59;;;;;;;51.47;38.00;;;17.70;99.90;;;;;;5073444;28;20040;-81
2022/08/17 03:37:44;;;;;;;58.05;40.38;;;18.00;99.90;;;;;;5067028;28;20035;-82
2022/08/17 03:40:29;;;;;;;57.78;39.30;;;17.90;99.90;;;;;;5052459;28;20128;-82
2022/08/17 03:43:14;;;;;;;50.35;38.53;;;17.80;99.90;;;;;;5062618;28;20119;-82
2022/08/17 03:58:16;;;;;;;77.63;44.88;;;;;;;;;;5062281;28;20223;-83
2022/08/17 04:01:01;;;;;;;50.60;36.92;;;;;;;;;;5071544;28;20047;-81
2022/08/17 04:03:45;;;;;;;75.07;44.88;;;17.30;99.90;;;;;;5071037;28;20124;-81
2022/08/17 04:06:30;;;;;;;64.55;41.88;;;17.90;99.90;;;;;;5071980;28;20111;-81
2022/08/17 04:09:14;;;;;;;90.15;49.58;;;17.70;99.90;;;;;;5072523;28;20484;-81
2022/08/17 04:11:58;;;;;;;91.75;48.25;;;17.40;99.90;;;;;;5069022;28;20066;-82
2022/08/17 04:14:43;;;;;;;97.57;51.25;;;17.90;99.90;;;;;;5068903;28;20144;-81
2022/08/17 04:17:28;;;;;;;89.60;50.00;;;17.60;99.90;;;;;;5063421;28;20404;-85
2022/08/17 04:20:14;;;;;;;84.70;48.88;;;17.60;99.90;;;;;;5072311;28;20039;-81
2022/08/17 04:23:04;;;;;;;64.30;41.90;;;17.40;99.90;;;;;;5072638;28;20043;-82
2022/08/17 04:25:50;;;;;;;114.45;51.78;;;17.50;99.90;;;;;;5071547;28;20450;-81
2022/08/17 04:28:34;;;;;;;59.40;39.40;;;17.60;99.90;;;;;;5070499;28;20042;-82
2022/08/17 04:31:19;;;;;;;68.65;43.97;;;17.60;99.90;;;;;;5072569;28;20085;-82
2022/08/17 04:34:03;;;;;;;64.30;42.53;;;17.70;99.90;;;;;;5054302;28;20036;-81
2022/08/17 04:36:48;;;;;;;84.00;47.80;;;17.80;99.90;;;;;;5054509;28;20384;-82
2022/08/17 04:39:33;;;;;;;97.40;48.70;;;17.70;99.90;;;;;;5070759;28;20090;-82
2022/08/17 04:42:17;;;;;;;86.78;47.95;;;18.00;99.90;;;;;;5051188;28;20401;-82
2022/08/17 04:45:03;;;;;;;72.32;45.70;;;18.00;99.90;;;;;;5055786;28;20151;-82
2022/08/17 04:47:47;;;;;;;59.80;42.15;;;17.80;99.90;;;;;;5062879;28;20064;-82
2022/08/17 04:50:38;;;;;;;63.72;41.65;;;17.80;99.90;;;;;;5064584;28;20067;-87
2022/08/17 04:53:22;;;;;;;61.58;42.08;;;17.70;99.90;;;;;;5056056;28;20223;-82
2022/08/17 04:56:07;;;;;;;61.13;44.08;;;17.80;99.90;;;;;;5067563;28;20659;-81
2022/08/17 04:58:56;;;;;;;77.07;45.55;;;17.90;99.90;;;;;;5068517;28;20039;-81
2022/08/17 05:04:22;;;;;;;74.63;45.60;;;17.70;99.90;;;;;;5131409;27;20740;-82
2022/08/17 05:07:07;;;;;;;79.13;47.55;;;18.20;99.90;;;;;;5122111;28;20164;-82
2022/08/17 05:09:51;;;;;;;65.05;43.40;;;18.20;99.90;;;;;;5119478;28;20457;-81
2022/08/17 05:12:35;;;;;;;60.00;41.35;;;18.00;99.90;;;;;;5123296;28;20145;-82
2022/08/17 05:15:19;;;;;;;60.35;41.88;;;18.20;99.90;;;;;;5113646;28;20438;-82
2022/08/17 05:18:05;;;;;;;62.60;43.00;;;18.10;99.90;;;;;;5095690;28;20043;-81
2022/08/17 05:20:49;;;;;;;60.65;43.05;;;18.00;99.90;;;;;;5118392;28;20039;-81
2022/08/17 05:23:35;;;;;;;72.97;43.90;;;18.10;99.90;;;;;;5123562;28;20076;-87
2022/08/17 05:26:20;;;;;;;74.13;46.95;;;18.20;99.90;;;;;;5120569;28;20129;-83
2022/08/17 05:29:04;;;;;;;79.32;48.80;;;;;;;;;;5118815;28;20034;-86
2022/08/17 05:31:49;;;;;;;81.07;48.88;;;18.40;99.90;;;;;;5115697;28;20120;-84
2022/08/17 05:34:35;;;;;;;74.05;45.97;;;18.10;99.90;;;;;;5092196;28;20035;-84
2022/08/17 05:37:19;;;;;;;69.95;45.58;;;18.50;99.90;;;;;;5122148;28;20514;-85
2022/08/17 05:40:04;;;;;;;74.57;46.70;;;19.30;99.90;;;;;;5121726;28;20407;-85
2022/08/17 05:42:49;;;;;;;65.95;43.80;;;18.30;99.90;;;;;;5119891;28;20145;-86
2022/08/17 05:45:54;;;;;;;71.20;44.83;;;18.60;99.90;;;;;;5117379;28;20039;-85
2022/08/17 05:48:54;;;;;;;73.57;46.17;;;18.50;99.90;;;;;;5108150;28;20069;-90
2022/08/17 05:51:54;;;;;;;71.43;47.20;;;18.50;99.90;;;;;;5119772;28;20039;-89
2022/08/17 05:55:01;;;;;;;70.15;44.53;;;18.40;99.90;;;;;;5120220;28;20398;-89
2022/08/17 05:57:53;;;;;;;69.60;44.50;;;19.40;99.90;;;;;;5113895;28;20092;-85
2022/08/17 06:01:00;;;;;;;77.43;48.33;;;18.50;99.90;;;;;;5115635;28;20030;-85
2022/08/17 06:03:52;;;;;;;80.70;46.65;;;18.60;99.90;;;;;;5122994;28;20108;-85
2022/08/17 06:06:55;;;;;;;80.53;48.05;;;18.70;99.90;;;;;;5098842;28;20104;-86
2022/08/17 06:09:48;;;;;;;71.03;45.13;;;18.70;99.90;;;;;;5116274;28;20050;-85
2022/08/17 06:13:04;;;;;;;65.13;44.97;;;18.70;99.90;;;;;;5114628;28;20034;-85
2022/08/17 06:16:10;;;;;;;76.07;48.83;;;18.90;99.90;;;;;;5108812;28;20034;-85
2022/08/17 06:18:59;;;;;;;75.90;48.78;;;18.80;99.90;;;;;;5102864;28;20039;-86
2022/08/17 06:21:47;;;;;;;76.32;48.33;;;18.80;99.90;;;;;;5102972;28;20035;-90
2022/08/17 06:24:41;;;;;;;90.07;51.45;;;18.90;99.90;;;;;;5101101;28;20034;-85
2022/08/17 06:27:44;;;;;;;81.38;50.00;;;19.00;99.90;;;;;;5107354;28;20043;-82
2022/08/17 06:30:33;;;;;;;79.90;47.90;;;18.90;99.90;;;;;;5100043;28;20482;-83
2022/08/17 06:33:25;;;;;;;87.18;52.65;;;19.60;99.90;;;;;;5084981;28;20093;-83
2022/08/17 06:36:29;;;;;;;93.68;56.33;;;19.00;99.90;;;;;;5102632;28;20034;-82
2022/08/17 06:39:46;;;;;;;81.77;50.87;;;19.20;99.90;;;;;;5105191;28;20086;-82
2022/08/17 06:42:46;;;;;;;92.75;56.83;;;19.10;99.90;;;;;;5100237;28;20043;-82
2022/08/17 06:45:37;;;;;;;77.85;51.72;;;19.20;99.90;;;;;;5100690;28;20407;-84
2022/08/17 06:48:41;;;;;;;90.00;53.00;;;19.30;99.90;;;;;;5106863;28;20026;-83
2022/08/17 06:51:33;;;;;;;85.78;54.38;;;19.50;99.90;;;;;;5086802;28;20114;-82
2022/08/17 06:54:44;;;;;;;79.18;52.00;;;19.60;99.90;;;;;;5102819;28;20153;-83
2022/08/17 06:57:32;;;;;;;82.45;52.33;;;19.50;99.90;;;;;;5098760;28;20089;-82
2022/08/17 07:00:23;;;;;;;77.88;51.85;;;19.60;99.90;;;;;;5102487;28;20031;-83
2022/08/17 07:03:08;;;;;;;78.13;51.42;;;19.90;99.90;;;;;;5108756;28;20078;-83
2022/08/17 07:05:59;;;;;;;72.15;49.58;;;19.80;99.90;;;;;;5098004;28;20507;-81
2022/08/17 07:08:54;;;;;;;68.70;49.58;;;19.80;99.90;;;;;;5096355;28;20035;-81
2022/08/17 07:12:03;;;;;;;68.50;48.72;;;19.90;99.90;;;;;;5085989;28;20127;-80
2022/08/17 07:15:04;;;;;;;68.03;49.03;;;19.90;99.90;;;;;;5101950;28;20098;-80
2022/08/17 07:17:48;;;;;;;66.50;48.35;;;20.10;99.90;;;;;;5102947;28;20054;-81
2022/08/17 07:20:33;;;;;;;63.63;45.17;;;20.10;99.90;;;;;;5101317;28;20108;-80
2022/08/17 07:24:07;;;;;;;66.10;48.38;;;20.30;99.90;;;;;;5082119;28;20098;-84
2022/08/17 07:27:26;;;;;;;54.22;41.80;;;20.60;99.90;;;;;;5068962;28;20093;-86
2022/08/17 07:30:20;;;;;;;53.88;41.28;;;20.70;99.90;;;;;;5096487;28;20051;-82
2022/08/17 07:33:16;;;;;;;57.00;42.90;;;20.80;99.90;;;;;;5104607;28;20104;-83
2022/08/17 07:36:01;;;;;;;56.55;40.88;;;20.90;99.90;;;;;;5102400;28;20537;-83
2022/08/17 07:38:56;;;;;;;52.22;39.03;;;20.90;99.90;;;;;;5089139;28;20066;-85
2022/08/17 07:41:41;;;;;;;55.30;39.97;;;20.90;99.90;;;;;;5088383;28;20120;-83
2022/08/17 07:44:25;;;;;;;52.00;39.33;;;20.90;99.90;;;;;;5112548;28;20047;-83
2022/08/17 07:50:27;;;;;;;54.08;39.50;;;20.90;99.90;;;;;;5101507;28;20031;-83
2022/08/17 07:53:16;;;;;;;;;;;20.90;99.90;;;;;;5097155;28;20097;-83
2022/08/17 07:56:00;;;;;;;52.42;39.58;;;20.90;99.90;;;;;;5101391;28;19919;-83
2022/08/17 07:58:47;;;;;;;54.25;41.15;;;20.90;99.90;;;;;;5112369;28;20395;-83
2022/08/17 08:01:33;;;;;;;54.00;41.75;;;20.90;99.90;;;;;;5097508;28;20038;-82
2022/08/17 08:04:26;;;;;;;52.58;41.05;;;21.00;99.90;;;;;;5071769;28;20067;-82
2022/08/17 08:07:16;;;;;;;50.40;42.35;;;21.00;99.90;;;;;;5088501;28;20031;-82
2022/08/17 08:10:07;;;;;;;55.10;40.25;;;21.10;99.90;;;;;;5074518;28;20483;-83
2022/08/17 08:13:06;;;;;;;52.35;39.70;;;21.10;99.90;;;;;;5073093;28;20546;-83
2022/08/17 08:15:53;;;;;;;49.28;36.70;;;21.20;99.90;;;;;;5080469;28;20100;-82
2022/08/17 08:18:44;;;;;;;48.83;36.63;;;21.30;99.90;;;;;;5075709;28;20491;-82
2022/08/17 08:21:47;;;;;;;48.15;38.17;;;21.50;99.90;;;;;;5079829;28;20446;-83
2022/08/17 08:24:54;;;;;;;45.72;36.03;;;21.60;99.90;;;;;;5082286;28;20058;-83
2022/08/17 08:27:56;;;;;;;47.10;36.72;;;21.60;99.90;;;;;;5085931;28;20039;-81
2022/08/17 08:30:47;;;;;;;43.67;36.80;;;21.60;99.90;;;;;;5072078;28;20071;-83
2022/08/17 08:33:55;;;;;;;45.25;37.13;;;21.60;99.90;;;;;;5072694;28;20506;-83
2022/08/17 08:36:52;;;;;;;43.35;36.03;;;21.70;99.90;;;;;;5057293;28;20522;-83
2022/08/17 08:39:51;;;;;;;42.22;35.47;;;21.70;99.90;;;;;;5086166;28;20038;-83
2022/08/17 08:42:48;;;;;;;44.67;35.50;;;21.80;99.90;;;;;;5083367;28;20035;-83
2022/08/17 08:45:43;;;;;;;42.83;34.22;;;22.00;99.90;;;;;;5084220;28;20051;-82
2022/08/17 08:49:03;;;;;;;40.38;35.42;;;22.20;99.90;;;;;;5076344;28;20043;-83
2022/08/17 08:51:57;;;;;;;37.90;32.75;;;22.30;99.90;;;;;;5090064;28;20043;-83
2022/08/17 08:54:57;;;;;;;41.72;35.83;;;22.50;99.90;;;;;;5079136;28;20048;-82
2022/08/17 08:57:55;;;;;;;38.05;33.00;;;22.30;99.90;;;;;;5077850;28;20061;-82
2022/08/17 09:00:46;;;;;;;39.55;33.33;;;22.20;99.90;;;;;;5084352;28;20073;-83
2022/08/17 09:03:42;;;;;;;40.95;34.97;;;22.30;99.90;;;;;;5084149;28;20458;-83
2022/08/17 09:06:46;;;;;;;40.95;32.63;;;22.30;99.90;;;;;;5099503;28;20504;-80
2022/08/17 09:10:07;;;;;;;38.72;31.98;;;22.30;99.90;;;;;;5098141;28;20035;-83
2022/08/17 09:13:03;;;;;;;37.05;31.15;;;22.50;99.90;;;;;;5088183;28;20038;-82
2022/08/17 09:15:57;;;;;;;37.72;31.63;;;22.90;99.90;;;;;;5104838;28;20030;-83
2022/08/17 09:18:52;;;;;;;35.53;31.85;;;23.20;99.90;;;;;;5082714;28;20034;-84
2022/08/17 09:21:53;;;;;;;35.05;31.25;;;23.60;99.90;;;;;;5091412;28;20043;-84
2022/08/17 09:24:42;;;;;;;37.35;32.35;;;23.60;99.90;;;;;;5100921;28;20409;-83
2022/08/17 09:27:42;;;;;;;37.55;31.20;;;23.50;99.90;;;;;;5095620;28;20969;-82
2022/08/17 09:30:35;;;;;;;36.45;31.27;;;23.50;99.90;;;;;;5106079;28;20057;-83
2022/08/17 09:33:24;;;;;;;41.10;32.45;;;23.40;99.90;;;;;;5092166;28;20088;-83
2022/08/17 09:36:21;;;;;;;41.22;32.33;;;23.20;99.90;;;;;;5104938;28;20046;-88
2022/08/17 09:39:12;;;;;;;41.88;31.52;;;23.20;99.90;;;;;;5082503;28;20049;-82
2022/08/17 09:42:18;;;;;;;37.13;32.35;;;22.60;99.90;;;;;;5111999;28;20531;-82
2022/08/17 09:45:34;;;;;;;39.25;31.05;;;23.10;99.90;;;;;;5102250;28;20555;-82
2022/08/17 09:48:44;;;;;;;39.15;32.50;;;23.20;99.90;;;;;;5101025;28;20040;-82
2022/08/17 09:51:40;;;;;;;34.47;29.95;;;23.00;99.90;;;;;;5102330;28;20039;-82
2022/08/17 09:54:25;;;;;;;34.88;28.77;;;;;;;;;;5115224;28;20039;-82
2022/08/17 09:57:51;;;;;;;39.38;32.53;;;23.40;99.90;;;;;;5115783;28;20034;-82
2022/08/17 10:00:42;;;;;;;40.92;33.85;;;22.60;99.90;;;;;;5110250;28;20038;-83
2022/08/17 10:03:39;;;;;;;40.10;34.58;;;22.50;99.90;;;;;;5101644;28;20491;-82
2022/08/17 10:06:32;;;;;;;44.78;37.30;;;22.50;99.90;;;;;;5094056;28;20490;-82
2022/08/17 10:09:38;;;;;;;43.95;34.70;;;22.50;99.90;;;;;;5115012;28;20030;-83
2022/08/17 10:12:34;;;;;;;43.42;35.70;;;22.60;99.90;;;;;;5094766;28;20042;-82
2022/08/17 10:15:37;;;;;;;41.17;35.33;;;22.60;99.90;;;;;;5079137;28;20039;-82
2022/08/17 10:18:56;;;;;;;42.60;35.83;;;22.60;99.90;;;;;;5108262;28;20038;-83
2022/08/17 10:27:58;;;;;;;45.85;36.50;;;22.70;99.90;;;;;;5095924;28;20043;-81
2022/08/17 10:30:48;;;;;;;43.42;34.42;;;22.80;99.90;;;;;;5101154;28;20504;-81
2022/08/17 10:34:05;;;;;;;42.85;32.53;;;23.00;99.90;;;;;;5096154;28;20490;-82
2022/08/17 10:36:58;;;;;;;47.10;36.13;;;23.10;99.90;;;;;;5077642;28;20085;-81
2022/08/17 10:40:17;;;;;;;42.65;34.35;;;23.20;99.90;;;;;;5079608;28;20461;-82
2022/08/17 10:43:21;;;;;;;43.20;35.95;;;23.40;99.90;;;;;;5099205;28;20055;-83
2022/08/17 10:46:25;;;;;;;42.80;36.72;;;23.50;99.90;;;;;;5087649;28;20062;-82
2022/08/17 10:49:24;;;;;;;44.17;34.33;;;23.80;99.90;;;;;;5108098;28;20038;-84
2022/08/17 10:52:27;;;;;;;41.33;34.67;;;23.80;99.90;;;;;;5106249;28;20081;-82
2022/08/17 10:55:14;;;;;;;38.30;32.67;;;24.10;99.90;;;;;;5096673;28;20042;-82
2022/08/17 10:58:20;;;;;;;38.25;31.20;;;24.30;99.90;;;;;;5104358;28;20077;-83
2022/08/17 11:01:11;;;;;;;36.08;29.95;;;;;;;;;;5104422;28;20031;-82
2022/08/17 11:03:57;;;;;;;38.45;30.60;;;24.90;99.90;;;;;;5100441;28;20077;-83
2022/08/17 11:07:00;;;;;;;37.58;32.53;;;24.80;99.90;;;;;;5101725;28;20034;-84
2022/08/17 11:09:45;;;;;;;34.22;30.48;;;;;;;;;;5105031;28;20442;-81
2022/08/17 11:12:32;;;;;;;31.88;27.33;;;25.50;99.90;;;;;;5104826;28;20162;-82
2022/08/17 11:15:54;;;;;;;32.08;27.73;;;25.60;99.90;;;;;;5099977;28;20156;-81
2022/08/17 11:19:10;;;;;;;33.35;28.23;;;25.50;99.90;;;;;;5105954;28;20084;-81
2022/08/17 11:22:11;;;;;;;27.33;24.40;;;25.40;99.90;;;;;;5085047;28;20031;-82
2022/08/17 11:25:12;;;;;;;32.13;26.15;;;25.60;99.90;;;;;;5094124;28;20067;-82
2022/08/17 11:28:14;;;;;;;28.70;25.80;;;25.70;99.90;;;;;;5096335;28;20034;-82
2022/08/17 11:31:04;;;;;;;32.20;27.35;;;25.80;99.90;;;;;;5097752;28;20088;-82
2022/08/17 11:34:03;;;;;;;33.63;29.40;;;25.80;99.90;;;;;;5105503;28;20403;-83
2022/08/17 11:37:09;;;;;;;29.30;26.13;;;25.80;99.90;;;;;;5092957;28;20035;-82
2022/08/17 11:40:20;;;;;;;34.67;26.63;;;25.80;99.90;;;;;;5085166;28;20053;-83
2022/08/17 11:43:22;;;;;;;27.50;24.67;;;25.70;99.90;;;;;;5106612;28;20038;-82
2022/08/17 11:53:05;;;;;;;26.90;22.85;;;25.40;99.90;;;;;;5097408;28;20111;-82
2022/08/17 11:55:52;;;;;;;26.23;21.95;;;25.50;99.90;;;;;;5096269;28;20046;-80
2022/08/17 11:58:43;;;;;;;23.55;20.80;;;24.60;99.90;;;;;;5098121;28;20035;-82
2022/08/17 12:01:30;;;;;;;22.75;20.55;;;25.40;99.90;;;;;;5093132;28;20499;-86
2022/08/17 12:04:21;;;;;;;23.85;18.55;;;25.50;99.90;;;;;;5097248;28;20097;-82
2022/08/17 12:07:16;;;;;;;26.83;17.55;;;25.20;99.90;;;;;;5100409;28;20084;-82
2022/08/17 12:10:01;;;;;;;23.35;18.33;;;25.10;99.90;;;;;;5093229;28;20402;-81
2022/08/17 12:12:49;;;;;;;22.55;20.15;;;25.10;99.90;;;;;;5092632;28;20093;-82
2022/08/17 12:15:40;;;;;;;21.67;19.42;;;25.00;99.90;;;;;;5099406;28;20387;-81
2022/08/17 12:18:32;;;;;;;23.85;21.05;;;25.00;99.90;;;;;;5107991;28;20475;-83
2022/08/17 12:21:44;;;;;;;21.33;19.05;;;24.90;99.90;;;;;;5104098;28;20043;-83
2022/08/17 12:24:38;;;;;;;23.60;17.95;;;24.90;99.90;;;;;;5095655;28;20050;-83
2022/08/17 12:27:26;;;;;;;20.88;17.58;;;24.90;99.90;;;;;;5099116;28;20445;-84
2022/08/17 12:30:15;;;;;;;18.00;15.82;;;24.90;99.90;;;;;;5098775;28;20034;-82
2022/08/17 12:32:59;;;;;;;21.45;14.35;;;24.80;99.90;;;;;;5111408;28;20548;-81
2022/08/17 12:35:45;;;;;;;16.42;14.05;;;24.80;99.90;;;;;;5105578;28;20093;-81
2022/08/17 12:38:35;;;;;;;16.73;13.93;;;24.70;99.90;;;;;;5102678;28;20050;-81
2022/08/17 12:41:37;;;;;;;13.60;11.85;;;24.80;99.90;;;;;;5078376;28;20043;-81
2022/08/17 12:44:30;;;;;;;16.88;13.07;;;24.70;99.90;;;;;;5090997;28;20042;-81
2022/08/17 12:47:18;;;;;;;15.60;14.00;;;24.80;99.90;;;;;;5100939;28;20085;-84
2022/08/17 12:50:11;;;;;;;14.25;12.73;;;24.80;99.90;;;;;;5109113;28;20494;-81
2022/08/17 12:52:56;;;;;;;;;;;24.70;99.90;;;;;;5106977;28;20226;-81
2022/08/17 12:55:41;;;;;;;17.88;12.90;;;24.70;99.90;;;;;;5099708;28;19915;-82
2022/08/17 12:58:43;;;;;;;14.95;12.48;;;24.60;99.90;;;;;;5100411;28;20183;-82
2022/08/17 13:01:27;;;;;;;15.80;12.77;;;24.60;99.90;;;;;;5100287;28;20039;-81
2022/08/17 13:04:15;;;;;;;15.88;13.32;;;24.40;99.90;;;;;;5083173;28;20085;-82
2022/08/17 13:06:59;;;;;;;15.32;11.60;;;24.40;99.90;;;;;;5091412;28;20534;-83
2022/08/17 13:09:49;;;;;;;14.85;13.25;;;24.40;99.90;;;;;;5083642;28;20491;-83
2022/08/17 13:12:34;;;;;;;17.85;14.00;;;24.40;99.90;;;;;;5091809;28;20047;-83
2022/08/17 13:15:40;;;;;;;16.80;14.48;;;24.40;99.90;;;;;;5105962;28;20043;-82
2022/08/17 13:18:45;;;;;;;18.42;12.38;;;24.40;99.90;;;;;;5096660;28;20034;-83
2022/08/17 13:21:32;;;;;;;15.60;14.02;;;24.50;99.90;;;;;;5102215;28;20035;-83
2022/08/17 13:24:16;;;;;;;13.90;12.32;;;24.50;99.90;;;;;;5087434;28;20511;-83
2022/08/17 13:27:01;;;;;;;15.60;13.35;;;;;;;;;;5105547;28;20810;-84
2022/08/17 13:29:45;;;;;;;15.93;14.23;;;24.50;99.90;;;;;;5104918;28;20043;-83
2022/08/17 13:32:29;;;;;;;16.40;12.55;;;24.50;99.90;;;;;;5104630;28;20039;-84
2022/08/17 13:35:37;;;;;;;14.40;12.77;;;24.60;99.90;;;;;;5095653;28;20064;-83
2022/08/17 13:38:46;;;;;;;16.58;12.60;;;24.60;99.90;;;;;;5103309;28;20494;-82
2022/08/17 13:41:37;;;;;;;15.75;14.25;;;24.40;99.90;;;;;;5094689;28;20042;-83
2022/08/17 13:44:32;;;;;;;15.68;14.07;;;24.40;99.90;;;;;;5115451;28;20038;-85
2022/08/17 13:47:18;;;;;;;19.92;16.38;;;24.20;99.90;;;;;;5090092;28;20507;-84
2022/08/17 13:50:03;;;;;;;18.75;15.65;;;24.00;99.90;;;;;;5112361;28;20263;-84
2022/08/17 13:52:47;;;;;;;16.50;13.68;;;24.20;99.90;;;;;;5083136;28;20115;-88
2022/08/17 13:55:31;;;;;;;15.93;13.60;;;;;;;;;;5086776;28;20178;-83
2022/08/17 13:58:22;;;;;;;17.35;15.05;;;23.90;99.90;;;;;;5097907;28;20487;-81
2022/08/17 14:01:28;;;;;;;17.75;14.70;;;24.00;99.90;;;;;;5108270;28;20039;-84
2022/08/17 14:04:28;;;;;;;17.85;14.35;;;23.20;99.90;;;;;;5102913;28;20062;-87
2022/08/17 14:07:12;;;;;;;17.02;15.23;;;23.80;99.90;;;;;;5105101;28;20161;-84
2022/08/17 14:10:12;;;;;;;17.27;15.45;;;23.80;99.90;;;;;;5114046;28;20030;-84
2022/08/17 14:12:57;;;;;;;20.10;14.75;;;;;;;;;;5099314;28;20100;-87
2022/08/17 14:15:41;;;;;;;21.92;17.40;;;23.70;99.90;;;;;;5108256;28;20081;-84
2022/08/17 14:18:26;;;;;;;19.17;16.70;;;23.60;99.90;;;;;;5098851;28;20548;-83
2022/08/17 14:21:10;;;;;;;22.42;16.65;;;;;;;;;;5111261;28;20039;-85
2022/08/17 14:23:54;;;;;;;22.25;17.63;;;23.50;99.90;;;;;;5084098;28;20043;-83
2022/08/17 14:26:38;;;;;;;20.67;17.73;;;23.30;99.90;;;;;;5101569;28;20106;-85
2022/08/17 14:29:25;;;;;;;21.20;17.52;;;23.20;99.90;;;;;;5097738;28;20039;-85
2022/08/17 14:32:21;;;;;;;20.70;16.75;;;22.60;99.90;;;;;;5098865;28;21405;-86
2022/08/17 14:35:07;;;;;;;19.92;16.05;;;22.90;99.90;;;;;;5107148;28;20035;-85
2022/08/17 14:37:52;;;;;;;19.73;16.02;;;23.10;99.90;;;;;;5105854;28;20034;-86
2022/08/17 14:40:36;;;;;;;27.50;20.17;;;22.90;99.90;;;;;;5098995;28;20104;-85
2022/08/17 14:43:20;;;;;;;22.48;19.38;;;22.80;99.90;;;;;;5079718;28;20037;-85
2022/08/17 14:46:05;;;;;;;23.48;21.08;;;22.80;99.90;;;;;;5103800;28;20525;-85
2022/08/17 14:48:52;;;;;;;26.25;20.95;;;22.80;99.90;;;;;;5093701;28;20472;-85
2022/08/17 14:51:37;;;;;;;26.77;20.10;;;22.80;99.90;;;;;;5094620;28;20034;-84
2022/08/17 14:54:22;;;;;;;24.45;19.77;;;22.70;99.90;;;;;;5113111;28;20100;-84
2022/08/17 14:57:06;;;;;;;21.25;19.05;;;22.50;99.90;;;;;;5113359;28;20050;-84
2022/08/17 14:59:52;;;;;;;28.45;19.25;;;22.60;99.90;;;;;;5100136;28;20039;-87
2022/08/17 15:02:47;;;;;;;22.00;18.40;;;22.90;99.90;;;;;;5110466;28;20038;-84
2022/08/17 15:05:35;;;;;;;19.52;17.50;;;22.50;99.90;;;;;;5099059;28;20514;-84
2022/08/17 15:08:19;;;;;;;20.33;18.25;;;22.40;99.90;;;;;;5114509;28;20041;-84
2022/08/17 15:11:03;;;;;;;22.85;19.77;;;22.30;99.90;;;;;;5113800;28;20101;-85